Maldives Meteorological Service

METAR

Station
VRMM
METAR VRMM 020800Z 30011KT 9999 FEW016 FEW017CB BKN100 27/25 Q1010 RESHRA CB E,SE,S,SW TEMPO 5000 SHRA=
VRMH
METAR VRMH 020800Z 33005KT 9999 FEW018TCU 32/26 Q1009=
VRMK
METAR VRMK 020800Z 28004KT 9999 FEW018 BKN270 30/26 Q1010=
VRMT
METAR VRMT 020800Z 27011KT 9999 FEW018TCU BKN260 31/26 Q1010=
VRMG
METAR VRMG 020800Z 29015KT 9999 FEW018TCU BKN260 31/25 Q1011 NOSIG=
Last Updated : 2020-12-02 12:59:35

SPECI

Station
VRMM
SPECI VRMM 020735Z 33008KT 9999 SCT017 FEW018CB BKN100 27/25 Q1010 RESHRA CB E,SSE TEMPO 29018G40KT 2000 TSRA=
VRMH
VRMK
VRMT
VRMG
Last Updated : 2020-12-02 12:59:35